Time;durP1;ratioP1;P1;durP2;ratioP2;P2;SDS_P1;SDS_P2;PMS_P1;PMS_P2;Temp;Humidity;BMP_temperature;BMP_pressure;BME280_temperature;BME280_humidity;BME280_pressure;Samples;Min_cycle;Max_cycle;Signal;HPM_P1;HPM_P2
2022/11/11 00:00:24;;;;;;;1.00;0.60;;;;;;;;;;4984389;28;20031;-78
2022/11/11 00:02:49;;;;;;;2.00;0.60;;;;;;;;;;4975984;28;20074;-78
2022/11/11 00:05:15;;;;;;;1.00;0.60;;;;;;;;;;4980389;28;20126;-77
2022/11/11 00:07:41;;;;;;;5.95;0.63;;;;;;;;;;4980514;28;20043;-78
2022/11/11 00:10:07;;;;;;;1.60;0.73;;;;;;;;;;4992705;28;20035;-78
2022/11/11 00:12:33;;;;;;;1.65;0.50;;;;;;;;;;4978172;28;20364;-77
2022/11/11 00:14:58;;;;;;;1.42;0.50;;;;;;;;;;4987730;28;20081;-78
2022/11/11 00:25:37;;;;;;;0.93;0.60;;;;;;;;;;4971168;28;20046;-77
2022/11/11 00:28:03;;;;;;;1.20;0.63;;;;;;;;;;4989117;28;20042;-77
2022/11/11 00:30:28;;;;;;;0.52;0.50;;;;;;;;;;4975785;28;20522;-78
2022/11/11 00:32:54;;;;;;;0.88;0.50;;;;;;;;;;5020612;28;20034;-78
2022/11/11 00:38:44;;;;;;;1.27;0.60;;;;;;;;;;4987815;28;20046;-78
2022/11/11 00:41:00;;;;;;;6.00;0.65;;;;;;;;;;4981319;28;20140;-78
2022/11/11 00:43:25;;;;;;;1.00;0.75;;;;;;;;;;4986716;28;20078;-77
2022/11/11 00:45:51;;;;;;;1.15;0.60;;;;;;;;;;4979303;28;20107;-77
2022/11/11 00:51:02;;;;;;;1.48;0.70;;;;;;;;;;4949679;28;20049;-78
2022/11/11 00:53:31;;;;;;;0.98;0.60;;;;;;;;;;4990770;28;20038;-78
2022/11/11 00:55:57;;;;;;;1.45;0.50;;;;;;;;;;4974873;28;20035;-78
2022/11/11 00:58:23;;;;;;;0.52;0.45;;;;;;;;;;5011979;28;20045;-78
2022/11/11 01:00:52;;;;;;;1.05;0.50;;;;;;;;;;4979479;28;20046;-78
2022/11/11 01:03:18;;;;;;;0.70;0.52;;;;;;;;;;4974930;28;20058;-77
2022/11/11 01:05:43;;;;;;;1.00;0.55;;;;;;;;;;4977750;28;20043;-79
2022/11/11 01:08:08;;;;;;;0.40;0.40;;;;;;;;;;4985012;28;20050;-78
2022/11/11 01:10:38;;;;;;;0.95;0.47;;;;;;;;;;4981718;28;20082;-79
2022/11/11 01:13:12;;;;;;;0.70;0.50;;;;;;;;;;4977167;28;20042;-78
2022/11/11 01:15:39;;;;;;;0.90;0.50;;;;;;;;;;4973426;28;20046;-77
2022/11/11 01:18:04;;;;;;;0.77;0.50;;;;;;;;;;4979669;28;20034;-77
2022/11/11 01:20:30;;;;;;;0.73;0.50;;;;;;;;;;4981097;28;20463;-78
2022/11/11 01:22:55;;;;;;;0.90;0.60;;;;;;;;;;4985691;28;20035;-78
2022/11/11 01:25:20;;;;;;;0.98;0.50;;;;;;;;;;4982833;28;20053;-77
2022/11/11 01:27:46;;;;;;;2.85;0.40;;;;;;;;;;4980069;28;20047;-78
2022/11/11 01:30:12;;;;;;;0.85;0.52;;;;;;;;;;4976226;28;20084;-77
2022/11/11 01:32:41;;;;;;;0.75;0.43;;;;;;;;;;4984647;28;20087;-78
2022/11/11 01:35:07;;;;;;;1.00;0.55;;;;;;;;;;4973692;28;20043;-78
2022/11/11 01:37:33;;;;;;;1.75;0.50;;;;;;;;;;4976111;28;20034;-77
2022/11/11 01:39:58;;;;;;;0.75;0.43;;;;;;;;;;4978307;28;20049;-77
2022/11/11 01:42:24;;;;;;;0.50;0.40;;;;;;;;;;4978209;28;20034;-79
2022/11/11 01:44:49;;;;;;;0.50;0.40;;;;;;;;;;4981185;28;20474;-78
2022/11/11 01:47:17;;;;;;;0.47;0.40;;;;;;;;;;4979766;28;20064;-78
2022/11/11 01:49:53;;;;;;;0.75;0.40;;;;;;;;;;4977989;28;20043;-79
2022/11/11 01:52:36;;;;;;;0.40;0.40;;;;;;;;;;4974981;28;20060;-78
2022/11/11 01:55:12;;;;;;;2.30;0.50;;;;;;;;;;4975004;28;20035;-78
2022/11/11 01:57:44;;;;;;;1.08;0.50;;;;;;;;;;4974608;28;20080;-77
2022/11/11 02:00:12;;;;;;;0.43;0.40;;;;;;;;;;4973237;28;20046;-78
2022/11/11 02:02:51;;;;;;;0.50;0.47;;;;;;;;;;4980181;28;20586;-78
2022/11/11 02:08:31;;;;;;;0.80;0.50;;;;;;;;;;4976024;28;20405;-78
2022/11/11 02:10:59;;;;;;;1.17;0.50;;;;;;;;;;4978132;28;20105;-78
2022/11/11 02:16:08;;;;;;;3.72;0.50;;;;;;;;;;4979301;28;20105;-78
2022/11/11 02:18:34;;;;;;;0.40;0.40;;;;;;;;;;4984340;28;20046;-78
2022/11/11 02:21:00;;;;;;;0.80;0.50;;;;;;;;;;4985043;28;20437;-78
2022/11/11 02:23:43;;;;;;;0.52;0.45;;;;;;;;;;4985717;28;20034;-79
2022/11/11 02:26:10;;;;;;;0.95;0.52;;;;;;;;;;4990684;28;20038;-78
2022/11/11 02:28:36;;;;;;;1.08;0.70;;;;;;;;;;4986975;28;20154;-78
2022/11/11 02:31:01;;;;;;;1.00;0.50;;;;;;;;;;4978951;28;20055;-78
2022/11/11 02:33:27;;;;;;;0.47;0.47;;;;;;;;;;4983212;28;20046;-78
2022/11/11 02:35:57;;;;;;;1.80;0.45;;;;;;;;;;4984232;28;20058;-78
2022/11/11 02:38:25;;;;;;;1.30;0.60;;;;;;;;;;4984767;28;20429;-78
2022/11/11 02:43:34;;;;;;;;;;;;;;;;;;4979744;28;20061;-78
2022/11/11 02:46:02;;;;;;;0.98;0.50;;;;;;;;;;4982214;28;20365;-78
2022/11/11 02:48:28;;;;;;;0.45;0.40;;;;;;;;;;4980284;28;20129;-78
2022/11/11 02:50:53;;;;;;;0.40;0.40;;;;;;;;;;5012331;28;20146;-78
2022/11/11 02:53:19;;;;;;;0.63;0.63;;;;;;;;;;4981046;28;20070;-78
2022/11/11 02:55:44;;;;;;;0.30;0.30;;;;;;;;;;4978907;28;20406;-79
2022/11/11 02:58:10;;;;;;;0.70;0.50;;;;;;;;;;4980132;28;20402;-78
2022/11/11 03:00:35;;;;;;;0.82;0.60;;;;;;;;;;4976177;28;20039;-78
2022/11/11 03:03:01;;;;;;;1.00;0.50;;;;;;;;;;4985702;28;20026;-78
2022/11/11 03:05:26;;;;;;;0.88;0.50;;;;;;;;;;4991470;28;20029;-77
2022/11/11 03:07:52;;;;;;;0.60;0.43;;;;;;;;;;4982748;28;20482;-78
2022/11/11 03:10:17;;;;;;;0.30;0.30;;;;;;;;;;4989054;28;20033;-77
2022/11/11 03:12:43;;;;;;;0.98;0.50;;;;;;;;;;4985280;28;20026;-78
2022/11/11 03:15:08;;;;;;;0.60;0.40;;;;;;;;;;4977528;28;20438;-78
2022/11/11 03:17:40;;;;;;;1.02;0.50;;;;;;;;;;4988397;28;20042;-77
2022/11/11 03:23:09;;;;;;;0.80;0.40;;;;;;;;;;4982756;28;20074;-78
2022/11/11 03:25:44;;;;;;;0.43;0.40;;;;;;;;;;4976299;28;20038;-78
2022/11/11 03:28:12;;;;;;;1.90;0.50;;;;;;;;;;4979648;28;20062;-77
2022/11/11 03:30:45;;;;;;;0.70;0.50;;;;;;;;;;4992852;28;20061;-79
2022/11/11 03:33:11;;;;;;;;;;;;;;;;;;4984686;28;20042;-77
2022/11/11 03:35:37;;;;;;;0.47;0.30;;;;;;;;;;4983569;28;19916;-78
2022/11/11 03:38:22;;;;;;;0.63;0.50;;;;;;;;;;5016934;28;20037;-77
2022/11/11 03:40:52;;;;;;;0.77;0.50;;;;;;;;;;4975688;28;20038;-78
2022/11/11 03:43:20;;;;;;;0.50;0.40;;;;;;;;;;4976581;28;20038;-77
2022/11/11 03:45:45;;;;;;;1.83;0.60;;;;;;;;;;5017675;28;20042;-79
2022/11/11 03:48:11;;;;;;;1.02;0.50;;;;;;;;;;5013553;28;20121;-77
2022/11/11 03:50:37;;;;;;;0.63;0.47;;;;;;;;;;4978555;28;20038;-77
2022/11/11 03:53:03;;;;;;;0.60;0.50;;;;;;;;;;4981546;28;20056;-78
2022/11/11 03:55:29;;;;;;;0.68;0.38;;;;;;;;;;4979070;28;20042;-77
2022/11/11 03:57:54;;;;;;;0.65;0.43;;;;;;;;;;4983331;28;20046;-79
2022/11/11 04:00:26;;;;;;;0.50;0.50;;;;;;;;;;4979653;28;20132;-77
2022/11/11 04:11:15;;;;;;;1.10;0.40;;;;;;;;;;4984645;28;20101;-77
2022/11/11 04:16:26;;;;;;;0.68;0.50;;;;;;;;;;4977741;28;20069;-77
2022/11/11 04:21:44;;;;;;;1.05;0.60;;;;;;;;;;4979141;28;20113;-77
2022/11/11 04:27:07;;;;;;;1.17;0.50;;;;;;;;;;4974952;28;20126;-78
2022/11/11 04:29:32;;;;;;;0.95;0.50;;;;;;;;;;4976723;28;20027;-78
2022/11/11 04:34:46;;;;;;;0.73;0.50;;;;;;;;;;4977268;28;20553;-78
2022/11/11 04:37:12;;;;;;;1.58;0.43;;;;;;;;;;4984949;28;20042;-77
2022/11/11 04:42:22;;;;;;;1.23;0.40;;;;;;;;;;4980024;28;20088;-77
2022/11/11 04:47:31;;;;;;;0.52;0.45;;;;;;;;;;4983992;28;20148;-77
2022/11/11 04:49:56;;;;;;;0.80;0.47;;;;;;;;;;4975649;28;20562;-78
2022/11/11 04:52:25;;;;;;;1.58;0.55;;;;;;;;;;4985972;28;20402;-78
2022/11/11 04:57:34;;;;;;;0.88;0.50;;;;;;;;;;4989387;28;20061;-77
2022/11/11 04:59:59;;;;;;;0.52;0.35;;;;;;;;;;4986426;28;20038;-76
2022/11/11 05:05:08;;;;;;;0.85;0.50;;;;;;;;;;4981070;28;20042;-78
2022/11/11 05:10:18;;;;;;;0.40;0.40;;;;;;;;;;4977530;28;20065;-77
2022/11/11 05:12:46;;;;;;;0.77;0.47;;;;;;;;;;4983919;28;20042;-77
2022/11/11 05:25:24;;;;;;;;;;;;;;;;;;4984049;28;20394;-77
2022/11/11 05:26:08;;;;;;;0.52;0.35;;;;;;;;;;4978271;28;19921;-77
2022/11/11 05:28:33;;;;;;;2.65;0.45;;;;;;;;;;4988329;28;20030;-78
2022/11/11 05:30:59;;;;;;;0.65;0.40;;;;;;;;;;4974193;28;20058;-78
2022/11/11 05:33:24;;;;;;;0.77;0.50;;;;;;;;;;4976971;28;20447;-77
2022/11/11 05:35:49;;;;;;;0.40;0.40;;;;;;;;;;4975953;28;20074;-78
2022/11/11 05:38:21;;;;;;;0.82;0.50;;;;;;;;;;4974590;28;20030;-78
2022/11/11 05:40:46;;;;;;;0.77;0.35;;;;;;;;;;4976604;28;21061;-78
2022/11/11 05:43:12;;;;;;;1.02;0.63;;;;;;;;;;4979691;28;20050;-78
2022/11/11 05:45:37;;;;;;;0.60;0.40;;;;;;;;;;4978596;28;20376;-78
2022/11/11 05:48:03;;;;;;;1.08;0.50;;;;;;;;;;5006096;28;20429;-78
2022/11/11 05:50:28;;;;;;;0.47;0.38;;;;;;;;;;4975240;28;20041;-78
2022/11/11 05:52:55;;;;;;;0.55;0.40;;;;;;;;;;5014058;28;20038;-76
2022/11/11 05:55:20;;;;;;;0.90;0.40;;;;;;;;;;4978916;28;20033;-77
2022/11/11 05:57:46;;;;;;;0.38;0.30;;;;;;;;;;4982878;28;20034;-79
2022/11/11 06:00:12;;;;;;;0.68;0.40;;;;;;;;;;4977888;28;20074;-78
2022/11/11 06:02:37;;;;;;;0.30;0.30;;;;;;;;;;4984132;28;20514;-78
2022/11/11 06:05:03;;;;;;;0.95;0.40;;;;;;;;;;4978049;28;20034;-78
2022/11/11 06:07:29;;;;;;;1.05;0.40;;;;;;;;;;4982624;28;20118;-78
2022/11/11 06:10:29;;;;;;;0.98;0.40;;;;;;;;;;4985325;28;20458;-78
2022/11/11 06:13:00;;;;;;;1.35;0.43;;;;;;;;;;4973795;28;20051;-78
2022/11/11 06:15:27;;;;;;;0.40;0.40;;;;;;;;;;4986321;28;20054;-79
2022/11/11 06:17:52;;;;;;;0.85;0.45;;;;;;;;;;4979129;28;20030;-78
2022/11/11 06:20:17;;;;;;;0.43;0.40;;;;;;;;;;4975535;28;20483;-78
2022/11/11 06:23:01;;;;;;;0.63;0.50;;;;;;;;;;4975448;28;20043;-79
2022/11/11 06:28:12;;;;;;;0.95;0.50;;;;;;;;;;4975823;28;20084;-78
2022/11/11 06:30:38;;;;;;;0.35;0.30;;;;;;;;;;4978048;28;20504;-78
2022/11/11 06:33:06;;;;;;;0.70;0.50;;;;;;;;;;4978813;28;20039;-78
2022/11/11 06:35:32;;;;;;;0.70;0.43;;;;;;;;;;4974512;28;20042;-79
2022/11/11 06:37:57;;;;;;;0.75;0.47;;;;;;;;;;4978728;28;20027;-78
2022/11/11 06:40:23;;;;;;;0.40;0.40;;;;;;;;;;4981542;28;20407;-80
2022/11/11 06:42:48;;;;;;;0.98;0.88;;;;;;;;;;4982299;28;20057;-79
2022/11/11 06:45:14;;;;;;;0.68;0.47;;;;;;;;;;4973518;28;20078;-77
2022/11/11 06:47:41;;;;;;;0.52;0.40;;;;;;;;;;4980377;28;20052;-77
2022/11/11 06:50:07;;;;;;;0.30;0.30;;;;;;;;;;4976889;28;20495;-77
2022/11/11 06:52:32;;;;;;;0.68;0.40;;;;;;;;;;4973809;28;20070;-78
2022/11/11 06:54:58;;;;;;;0.52;0.40;;;;;;;;;;4979431;28;20039;-78
2022/11/11 06:57:23;;;;;;;3.78;0.50;;;;;;;;;;4985354;28;20038;-78
2022/11/11 06:59:48;;;;;;;1.88;0.40;;;;;;;;;;4987565;28;20490;-78
2022/11/11 07:02:14;;;;;;;0.43;0.40;;;;;;;;;;5011936;28;20038;-78
2022/11/11 07:04:39;;;;;;;0.40;0.38;;;;;;;;;;4986684;28;20534;-81
2022/11/11 07:07:05;;;;;;;0.80;0.40;;;;;;;;;;4961457;28;20045;-78
2022/11/11 07:09:30;;;;;;;0.38;0.38;;;;;;;;;;4977600;28;20070;-78
2022/11/11 07:11:55;;;;;;;1.00;0.32;;;;;;;;;;4980111;28;20463;-78
2022/11/11 07:14:21;;;;;;;0.45;0.40;;;;;;;;;;4976630;28;20070;-78
2022/11/11 07:16:46;;;;;;;0.40;0.40;;;;;;;;;;4979811;28;20043;-78
2022/11/11 07:19:12;;;;;;;0.63;0.40;;;;;;;;;;4977550;28;20467;-78
2022/11/11 07:21:37;;;;;;;1.70;0.55;;;;;;;;;;4968757;28;20038;-78
2022/11/11 07:24:02;;;;;;;1.35;0.47;;;;;;;;;;4985314;28;20038;-80
2022/11/11 07:26:28;;;;;;;0.60;0.50;;;;;;;;;;4978237;28;20041;-79
2022/11/11 07:28:53;;;;;;;1.00;0.50;;;;;;;;;;4993501;28;20030;-78
2022/11/11 07:31:19;;;;;;;2.50;0.57;;;;;;;;;;4980955;28;20053;-78
2022/11/11 07:33:44;;;;;;;1.33;0.50;;;;;;;;;;4985146;28;20474;-78
2022/11/11 07:36:09;;;;;;;0.60;0.40;;;;;;;;;;4983004;28;20031;-78
2022/11/11 07:38:35;;;;;;;1.02;0.60;;;;;;;;;;4976938;28;20047;-77
2022/11/11 07:41:00;;;;;;;0.82;0.50;;;;;;;;;;4974842;28;20137;-81
2022/11/11 07:43:25;;;;;;;3.35;0.52;;;;;;;;;;4986133;28;20029;-80
2022/11/11 07:45:51;;;;;;;1.80;0.50;;;;;;;;;;4979426;28;20442;-80
2022/11/11 07:48:16;;;;;;;2.28;0.65;;;;;;;;;;4982030;28;20026;-78
2022/11/11 07:50:42;;;;;;;1.85;0.60;;;;;;;;;;4984377;28;20383;-82
2022/11/11 07:53:07;;;;;;;5.35;0.60;;;;;;;;;;4990497;28;20042;-79
2022/11/11 07:55:32;;;;;;;1.98;0.45;;;;;;;;;;4974098;28;20030;-80
2022/11/11 07:57:58;;;;;;;0.68;0.50;;;;;;;;;;4981954;28;20092;-81
2022/11/11 08:00:24;;;;;;;1.85;0.50;;;;;;;;;;4987367;28;20046;-83
2022/11/11 08:02:49;;;;;;;1.25;0.57;;;;;;;;;;4970289;28;20045;-80
2022/11/11 08:05:15;;;;;;;1.05;0.50;;;;;;;;;;4987799;28;20034;-89
2022/11/11 08:07:41;;;;;;;1.23;0.50;;;;;;;;;;4981388;28;20049;-83
2022/11/11 08:10:08;;;;;;;0.65;0.50;;;;;;;;;;4984262;28;20026;-83
2022/11/11 08:15:17;;;;;;;0.57;0.43;;;;;;;;;;4980338;28;20069;-80
2022/11/11 08:17:43;;;;;;;0.70;0.57;;;;;;;;;;4995679;28;20462;-82
2022/11/11 08:20:09;;;;;;;2.42;0.52;;;;;;;;;;4994458;28;20081;-80
2022/11/11 08:22:36;;;;;;;0.77;0.40;;;;;;;;;;4986705;28;20035;-82
2022/11/11 08:25:02;;;;;;;0.90;0.60;;;;;;;;;;4986713;28;20069;-85
2022/11/11 08:27:27;;;;;;;0.82;0.50;;;;;;;;;;4977387;28;20125;-84
2022/11/11 08:29:53;;;;;;;0.90;0.57;;;;;;;;;;4980101;28;20045;-83
2022/11/11 08:32:18;;;;;;;1.45;0.43;;;;;;;;;;4976367;28;20133;-86
2022/11/11 08:34:44;;;;;;;1.17;0.60;;;;;;;;;;4959009;28;20049;-91
2022/11/11 08:37:09;;;;;;;0.68;0.50;;;;;;;;;;4975272;28;20048;-87
2022/11/11 08:39:34;;;;;;;5.10;0.50;;;;;;;;;;4981903;28;20036;-84
2022/11/11 08:42:00;;;;;;;0.93;0.50;;;;;;;;;;4978788;28;20035;-82
2022/11/11 08:44:25;;;;;;;2.15;0.63;;;;;;;;;;4976080;28;20431;-83
2022/11/11 08:46:51;;;;;;;1.27;0.60;;;;;;;;;;4978834;28;20105;-83
2022/11/11 08:49:16;;;;;;;3.47;0.60;;;;;;;;;;4983970;28;20066;-85
2022/11/11 08:51:41;;;;;;;1.17;0.70;;;;;;;;;;4978950;28;20117;-81
2022/11/11 08:54:07;;;;;;;0.88;0.40;;;;;;;;;;4985958;28;20065;-83
2022/11/11 08:56:32;;;;;;;0.68;0.50;;;;;;;;;;4985082;28;20046;-85
2022/11/11 08:58:58;;;;;;;3.05;0.65;;;;;;;;;;4988281;28;20065;-82
2022/11/11 09:01:23;;;;;;;1.38;0.77;;;;;;;;;;4980001;28;20030;-81
2022/11/11 09:03:48;;;;;;;1.23;0.57;;;;;;;;;;4987274;28;20042;-86
2022/11/11 09:06:14;;;;;;;0.43;0.38;;;;;;;;;;4984434;28;20030;-87
2022/11/11 09:08:43;;;;;;;0.82;0.50;;;;;;;;;;4983634;28;20042;-85
2022/11/11 09:11:09;;;;;;;1.38;0.50;;;;;;;;;;4981301;28;20088;-80
2022/11/11 09:13:34;;;;;;;0.57;0.50;;;;;;;;;;4972968;28;20042;-86
2022/11/11 09:15:59;;;;;;;1.65;0.60;;;;;;;;;;4974864;28;20038;-85
2022/11/11 09:18:26;;;;;;;1.52;0.60;;;;;;;;;;4991115;28;20540;-82
2022/11/11 09:20:51;;;;;;;12.90;0.90;;;;;;;;;;4967808;28;20550;-82
2022/11/11 09:23:16;;;;;;;4.22;0.98;;;;;;;;;;4964598;28;20067;-82
2022/11/11 09:25:42;;;;;;;5.38;0.70;;;;;;;;;;4971206;28;20162;-83
2022/11/11 09:28:07;;;;;;;2.00;0.60;;;;;;;;;;4982996;28;20053;-82
2022/11/11 09:30:33;;;;;;;3.25;0.65;;;;;;;;;;4975071;28;20034;-83
2022/11/11 09:33:03;;;;;;;2.72;0.50;;;;;;;;;;4986404;28;20046;-82
2022/11/11 09:35:28;;;;;;;2.90;1.00;;;;;;;;;;4987599;28;20081;-83
2022/11/11 09:37:59;;;;;;;1.00;0.50;;;;;;;;;;4969212;28;20031;-82
2022/11/11 09:40:27;;;;;;;3.67;0.60;;;;;;;;;;4966329;28;20042;-83
2022/11/11 09:43:04;;;;;;;1.65;0.60;;;;;;;;;;4984736;28;20030;-83
2022/11/11 09:45:52;;;;;;;3.03;0.88;;;;;;;;;;4969965;28;20046;-83
2022/11/11 09:48:56;;;;;;;1.55;0.60;;;;;;;;;;4987558;28;20031;-83
2022/11/11 09:51:43;;;;;;;3.50;0.50;;;;;;;;;;4979862;28;20532;-82
2022/11/11 09:54:15;;;;;;;8.35;1.23;;;;;;;;;;4971246;28;20039;-82
2022/11/11 09:56:41;;;;;;;1.85;0.57;;;;;;;;;;4977669;28;20030;-82
2022/11/11 09:59:14;;;;;;;2.00;0.60;;;;;;;;;;4978310;28;20037;-82
2022/11/11 10:01:49;;;;;;;0.30;0.30;;;;;;;;;;4983455;28;20262;-82
2022/11/11 10:04:33;;;;;;;1.00;0.50;;;;;;;;;;4973381;28;20463;-82
2022/11/11 10:07:11;;;;;;;1.38;0.68;;;;;;;;;;4958261;28;20517;-85
2022/11/11 10:09:41;;;;;;;1.42;0.55;;;;;;;;;;4964538;28;20066;-84
2022/11/11 10:12:09;;;;;;;3.78;0.77;;;;;;;;;;4968028;28;20089;-87
2022/11/11 10:14:38;;;;;;;3.78;0.70;;;;;;;;;;4989916;28;20383;-88
2022/11/11 10:17:22;;;;;;;1.00;0.50;;;;;;;;;;4979491;28;20042;-83
2022/11/11 10:20:15;;;;;;;0.85;0.63;;;;;;;;;;4973047;28;20398;-82
2022/11/11 10:22:41;;;;;;;1.17;0.50;;;;;;;;;;4976559;28;20042;-86
2022/11/11 10:25:18;;;;;;;3.97;0.65;;;;;;;;;;4973026;28;20035;-83
2022/11/11 10:27:44;;;;;;;2.70;0.60;;;;;;;;;;4977972;28;20042;-82
2022/11/11 10:30:19;;;;;;;1.08;0.50;;;;;;;;;;4987478;28;20038;-83
2022/11/11 10:32:52;;;;;;;0.82;0.50;;;;;;;;;;4974123;28;20117;-84
2022/11/11 10:35:26;;;;;;;0.88;0.47;;;;;;;;;;4975319;28;20027;-84
2022/11/11 10:38:18;;;;;;;0.75;0.47;;;;;;;;;;4973984;28;20159;-83
2022/11/11 10:40:49;;;;;;;0.68;0.43;;;;;;;;;;4946477;28;20487;-83
2022/11/11 10:43:25;;;;;;;0.90;0.50;;;;;;;;;;4975379;28;21903;-83
2022/11/11 10:46:05;;;;;;;3.60;0.50;;;;;;;;;;4978228;28;20067;-84
2022/11/11 10:48:51;;;;;;;0.82;0.50;;;;;;;;;;4978688;28;20066;-82
2022/11/11 10:51:17;;;;;;;0.85;0.55;;;;;;;;;;4981495;28;20044;-84
2022/11/11 10:54:11;;;;;;;1.38;0.60;;;;;;;;;;4978398;28;20039;-89
2022/11/11 10:56:54;;;;;;;1.57;0.50;;;;;;;;;;4973501;28;20121;-87
2022/11/11 10:59:34;;;;;;;3.03;0.60;;;;;;;;;;4975136;28;20038;-87
2022/11/11 11:02:12;;;;;;;1.40;0.60;;;;;;;;;;4976465;28;20030;-85
2022/11/11 11:04:43;;;;;;;1.40;0.60;;;;;;;;;;4977263;28;20485;-81
2022/11/11 11:07:10;;;;;;;0.70;0.57;;;;;;;;;;4967817;28;20030;-82
2022/11/11 11:09:49;;;;;;;1.30;0.63;;;;;;;;;;4977976;28;20442;-83
2022/11/11 11:12:27;;;;;;;1.52;0.60;;;;;;;;;;4973760;28;20038;-82
2022/11/11 11:15:01;;;;;;;1.15;0.60;;;;;;;;;;4971514;28;20047;-83
2022/11/11 11:17:50;;;;;;;0.80;0.40;;;;;;;;;;4955555;28;20035;-84
2022/11/11 11:20:19;;;;;;;1.17;0.63;;;;;;;;;;4972605;28;20573;-83
2022/11/11 11:22:46;;;;;;;1.60;0.70;;;;;;;;;;4973928;28;20114;-84
2022/11/11 11:25:12;;;;;;;2.35;0.45;;;;;;;;;;4971595;28;20046;-84
2022/11/11 11:27:37;;;;;;;0.63;0.50;;;;;;;;;;4988957;28;20038;-83
2022/11/11 11:30:14;;;;;;;2.65;0.50;;;;;;;;;;4981405;28;20039;-84
2022/11/11 11:32:42;;;;;;;1.00;0.50;;;;;;;;;;4977049;28;20078;-83
2022/11/11 11:35:08;;;;;;;1.13;0.60;;;;;;;;;;4981843;28;20502;-83
2022/11/11 11:37:49;;;;;;;0.68;0.50;;;;;;;;;;4984204;28;20054;-83
2022/11/11 11:40:15;;;;;;;2.38;0.73;;;;;;;;;;4983320;28;20713;-83
2022/11/11 11:42:40;;;;;;;1.67;0.60;;;;;;;;;;4986956;28;20057;-84
2022/11/11 11:45:19;;;;;;;0.70;0.40;;;;;;;;;;4972234;28;20035;-84
2022/11/11 11:47:50;;;;;;;0.93;0.60;;;;;;;;;;4975681;28;20038;-83
2022/11/11 11:50:27;;;;;;;1.13;0.60;;;;;;;;;;4978376;28;20086;-83
2022/11/11 11:53:02;;;;;;;0.65;0.50;;;;;;;;;;4975925;28;20439;-83
2022/11/11 11:55:37;;;;;;;1.00;0.45;;;;;;;;;;4977524;28;20026;-83
2022/11/11 11:58:08;;;;;;;1.40;0.70;;;;;;;;;;4981064;28;20053;-84
2022/11/11 12:00:42;;;;;;;1.33;0.68;;;;;;;;;;4977785;28;20066;-82
2022/11/11 12:03:14;;;;;;;2.15;0.55;;;;;;;;;;4973500;28;20047;-82
2022/11/11 12:05:42;;;;;;;1.25;0.57;;;;;;;;;;4965062;28;20089;-83
2022/11/11 12:08:27;;;;;;;0.85;0.50;;;;;;;;;;4978709;28;20113;-83
2022/11/11 12:11:17;;;;;;;1.40;0.60;;;;;;;;;;4978012;28;20109;-82
2022/11/11 12:14:04;;;;;;;1.98;0.60;;;;;;;;;;4988034;28;20414;-82
2022/11/11 12:17:01;;;;;;;1.02;0.60;;;;;;;;;;4985946;28;20459;-82
2022/11/11 12:19:41;;;;;;;1.05;0.50;;;;;;;;;;4978888;28;20046;-82
2022/11/11 12:22:25;;;;;;;1.67;0.63;;;;;;;;;;4975725;28;20499;-82
2022/11/11 12:25:17;;;;;;;0.68;0.50;;;;;;;;;;4974858;28;20483;-82
2022/11/11 12:28:17;;;;;;;1.00;0.50;;;;;;;;;;4971226;28;20054;-84
2022/11/11 12:31:12;;;;;;;0.98;0.50;;;;;;;;;;4958130;28;20089;-83
2022/11/11 12:33:46;;;;;;;3.03;0.60;;;;;;;;;;4970969;28;20051;-83
2022/11/11 12:36:34;;;;;;;1.10;0.60;;;;;;;;;;4978785;28;20043;-81
2022/11/11 12:39:31;;;;;;;3.28;0.70;;;;;;;;;;4980325;28;20042;-82
2022/11/11 12:42:47;;;;;;;1.63;0.57;;;;;;;;;;4964021;28;20048;-82
2022/11/11 12:45:20;;;;;;;1.20;0.60;;;;;;;;;;4956434;28;20057;-85
2022/11/11 12:48:07;;;;;;;1.23;0.60;;;;;;;;;;4961233;28;20050;-83
2022/11/11 12:50:46;;;;;;;2.85;0.70;;;;;;;;;;4983201;28;20076;-85
2022/11/11 12:53:25;;;;;;;2.63;0.70;;;;;;;;;;4980524;28;20049;-82
2022/11/11 12:56:02;;;;;;;2.45;1.00;;;;;;;;;;4965327;28;20043;-84
2022/11/11 12:58:30;;;;;;;2.97;1.35;;;;;;;;;;4965664;28;20043;-83
2022/11/11 13:01:14;;;;;;;1.50;0.70;;;;;;;;;;4978952;28;20042;-83
2022/11/11 13:03:52;;;;;;;1.58;0.68;;;;;;;;;;4983146;28;20042;-83
2022/11/11 13:06:24;;;;;;;4.38;0.80;;;;;;;;;;4974210;28;20031;-83
2022/11/11 13:09:10;;;;;;;1.83;0.70;;;;;;;;;;4971358;28;20090;-82
2022/11/11 13:12:05;;;;;;;1.58;0.80;;;;;;;;;;4972004;28;20485;-83
2022/11/11 13:14:43;;;;;;;1.10;0.50;;;;;;;;;;4970557;28;20089;-82
2022/11/11 13:17:13;;;;;;;2.15;0.80;;;;;;;;;;4966309;28;20031;-83
2022/11/11 13:19:43;;;;;;;2.42;0.88;;;;;;;;;;4987836;28;20034;-84
2022/11/11 13:22:24;;;;;;;1.98;0.70;;;;;;;;;;4988225;28;20080;-83
2022/11/11 13:24:51;;;;;;;1.58;0.75;;;;;;;;;;4978645;28;20034;-80
2022/11/11 13:27:25;;;;;;;2.20;0.88;;;;;;;;;;4971248;28;20364;-80
2022/11/11 13:30:29;;;;;;;2.75;1.00;;;;;;;;;;4964306;28;20047;-83
2022/11/11 13:33:01;;;;;;;5.78;1.52;;;;;;;;;;4919455;29;20047;-83
2022/11/11 13:35:34;;;;;;;7.40;1.60;;;;;;;;;;4968612;28;20043;-86
2022/11/11 13:38:01;;;;;;;4.90;1.52;;;;;;;;;;4992427;28;20050;-85
2022/11/11 13:40:42;;;;;;;4.45;1.40;;;;;;;;;;4970714;28;20038;-83
2022/11/11 13:43:41;;;;;;;5.20;1.60;;;;;;;;;;4981866;28;20542;-82
2022/11/11 13:46:22;;;;;;;2.78;1.27;;;;;;;;;;4966640;28;20071;-89
2022/11/11 13:48:48;;;;;;;6.35;1.95;;;;;;;;;;4990509;28;20027;-84
2022/11/11 13:51:23;;;;;;;5.85;1.48;;;;;;;;;;4972099;28;20054;-91
2022/11/11 13:53:48;;;;;;;10.18;1.35;;;;;;;;;;4973719;28;20083;-85
2022/11/11 13:56:26;;;;;;;4.10;1.50;;;;;;;;;;4988080;28;20117;-88
2022/11/11 13:58:52;;;;;;;4.30;1.42;;;;;;;;;;4964818;28;20110;-90
2022/11/11 14:01:17;;;;;;;5.43;1.65;;;;;;;;;;4986657;28;20057;-93
2022/11/11 14:03:43;;;;;;;6.22;1.92;;;;;;;;;;4968310;28;20116;-85
2022/11/11 14:06:14;;;;;;;8.60;1.60;;;;;;;;;;4983859;28;20461;-82
2022/11/11 14:08:46;;;;;;;5.57;1.73;;;;;;;;;;4990985;28;20048;-87
2022/11/11 14:11:37;;;;;;;3.67;1.33;;;;;;;;;;4969764;28;20599;-83
2022/11/11 14:14:30;;;;;;;4.75;1.55;;;;;;;;;;4958101;28;20398;-84
2022/11/11 14:17:00;;;;;;;5.22;1.63;;;;;;;;;;4990854;28;20034;-84
2022/11/11 14:19:26;;;;;;;4.85;1.67;;;;;;;;;;4978926;28;20039;-83
2022/11/11 14:21:53;;;;;;;6.05;1.65;;;;;;;;;;4971607;28;20031;-90
2022/11/11 14:24:54;;;;;;;5.68;1.55;;;;;;;;;;4957930;28;20030;-89
2022/11/11 14:27:31;;;;;;;5.60;1.55;;;;;;;;;;4949994;28;20066;-89
2022/11/11 14:29:57;;;;;;;3.92;1.60;;;;;;;;;;4978864;28;20434;-90
2022/11/11 14:32:44;;;;;;;3.67;1.48;;;;;;;;;;4977594;28;20184;-89
2022/11/11 14:35:16;;;;;;;4.75;1.42;;;;;;;;;;4971707;28;20550;-89
2022/11/11 14:37:59;;;;;;;3.58;1.48;;;;;;;;;;4954165;28;20043;-89
2022/11/11 14:40:29;;;;;;;3.78;1.42;;;;;;;;;;4959648;28;20133;-89
2022/11/11 14:42:56;;;;;;;4.78;1.63;;;;;;;;;;4969691;28;20046;-89
2022/11/11 14:45:30;;;;;;;3.97;1.60;;;;;;;;;;4991258;28;20030;-89
2022/11/11 14:47:56;;;;;;;4.00;1.40;;;;;;;;;;4989035;28;20053;-89
2022/11/11 14:50:31;;;;;;;3.50;1.40;;;;;;;;;;4966468;28;20059;-89
2022/11/11 14:53:16;;;;;;;5.05;1.40;;;;;;;;;;4952275;28;20086;-90
2022/11/11 14:55:41;;;;;;;3.88;1.45;;;;;;;;;;4951787;28;20387;-90
2022/11/11 14:58:07;;;;;;;5.55;1.30;;;;;;;;;;4964640;28;20035;-91
2022/11/11 15:00:57;;;;;;;4.80;1.20;;;;;;;;;;4971835;28;20085;-91
2022/11/11 15:03:30;;;;;;;3.80;1.27;;;;;;;;;;4967159;28;20067;-90
2022/11/11 15:06:04;;;;;;;3.20;1.27;;;;;;;;;;4973720;28;20037;-90
2022/11/11 15:08:38;;;;;;;3.33;1.10;;;;;;;;;;4965357;28;20683;-91
2022/11/11 15:11:27;;;;;;;2.70;1.10;;;;;;;;;;4969733;28;20113;-90
2022/11/11 15:14:05;;;;;;;4.13;1.75;;;;;;;;;;4962080;28;20546;-89
2022/11/11 15:16:40;;;;;;;2.08;0.93;;;;;;;;;;4970590;28;20542;-90
2022/11/11 15:19:27;;;;;;;4.57;1.25;;;;;;;;;;4971984;28;20039;-90
2022/11/11 15:22:07;;;;;;;4.18;1.17;;;;;;;;;;4988339;28;20038;-91
2022/11/11 15:24:51;;;;;;;2.58;1.02;;;;;;;;;;4995073;28;20042;-89
2022/11/11 15:27:35;;;;;;;3.35;1.10;;;;;;;;;;4983035;28;20049;-89
2022/11/11 15:30:17;;;;;;;3.10;0.95;;;;;;;;;;4975239;28;20077;-89
2022/11/11 15:33:03;;;;;;;4.35;1.10;;;;;;;;;;4974388;28;20055;-90
2022/11/11 15:35:49;;;;;;;1.88;0.93;;;;;;;;;;4974111;28;20038;-89
2022/11/11 15:38:16;;;;;;;2.05;0.90;;;;;;;;;;4976790;28;20463;-90
2022/11/11 15:40:45;;;;;;;1.48;0.70;;;;;;;;;;4982448;28;20128;-89
2022/11/11 15:43:23;;;;;;;2.95;0.85;;;;;;;;;;4989377;28;20030;-89
2022/11/11 15:45:54;;;;;;;4.10;1.17;;;;;;;;;;4981699;28;20043;-89
2022/11/11 15:48:22;;;;;;;2.30;1.00;;;;;;;;;;5005937;28;20030;-90
2022/11/11 15:50:48;;;;;;;3.38;1.10;;;;;;;;;;4966916;28;20062;-90
2022/11/11 15:53:15;;;;;;;4.35;0.90;;;;;;;;;;4973286;28;20070;-87
2022/11/11 15:55:40;;;;;;;3.42;1.10;;;;;;;;;;4973668;28;20482;-88
2022/11/11 15:58:28;;;;;;;2.35;0.85;;;;;;;;;;4973681;28;20114;-88
2022/11/11 16:00:56;;;;;;;1.60;0.80;;;;;;;;;;4972861;28;20042;-88
2022/11/11 16:03:54;;;;;;;2.17;0.90;;;;;;;;;;4986499;28;20487;-89
2022/11/11 16:06:20;;;;;;;13.65;1.23;;;;;;;;;;4955583;28;20077;-88
2022/11/11 16:08:51;;;;;;;1.90;0.85;;;;;;;;;;4987416;28;20034;-89
2022/11/11 16:11:18;;;;;;;3.65;0.98;;;;;;;;;;4989058;28;20125;-88
2022/11/11 16:13:45;;;;;;;3.90;1.02;;;;;;;;;;4981952;28;20501;-89
2022/11/11 16:16:15;;;;;;;2.80;0.90;;;;;;;;;;4989489;28;20038;-91
2022/11/11 16:18:43;;;;;;;2.33;0.80;;;;;;;;;;4972820;28;20058;-91